createdAt,value
2022-09-15T00:01:02.301Z,1.30
2022-09-15T00:03:29.551Z,1.50
2022-09-15T00:05:57.629Z,1.42
2022-09-15T00:08:25.375Z,1.38
2022-09-15T00:10:59.138Z,1.58
2022-09-15T00:13:26.475Z,1.33
2022-09-15T00:15:53.680Z,1.35
2022-09-15T00:18:20.680Z,1.38
2022-09-15T00:20:47.456Z,1.35
2022-09-15T00:23:15.970Z,1.42
2022-09-15T00:25:52.876Z,1.30
2022-09-15T00:28:21.529Z,1.50
2022-09-15T00:30:53.400Z,1.23
2022-09-15T00:35:49.336Z,1.48
2022-09-15T00:38:17.531Z,1.42
2022-09-15T00:40:50.433Z,1.40
2022-09-15T00:43:20.210Z,1.35
2022-09-15T00:45:48.466Z,1.60
2022-09-15T00:48:22.065Z,1.15
2022-09-15T00:50:53.950Z,1.25
2022-09-15T00:55:50.611Z,1.42
2022-09-15T00:58:27.879Z,1.70
2022-09-15T01:00:58.477Z,1.30
2022-09-15T01:03:26.383Z,1.42
2022-09-15T01:05:57.938Z,1.40
2022-09-15T01:08:27.541Z,1.38
2022-09-15T01:10:54.278Z,1.38
2022-09-15T01:13:20.895Z,1.73
2022-09-15T01:16:23.157Z,1.42
2022-09-15T01:19:05.737Z,1.23
2022-09-15T01:21:47.085Z,1.58
2022-09-15T01:24:40.515Z,1.33
2022-09-15T01:27:43.012Z,1.40
2022-09-15T01:30:12.966Z,1.40
2022-09-15T01:33:06.668Z,1.77
2022-09-15T01:35:46.773Z,1.75
2022-09-15T01:38:13.335Z,1.40
2022-09-15T01:40:50.372Z,1.60
2022-09-15T01:43:21.063Z,1.30
2022-09-15T01:45:49.929Z,1.33
2022-09-15T01:48:21.010Z,1.40
2022-09-15T01:50:51.611Z,1.47
2022-09-15T01:53:20.612Z,1.58
2022-09-15T01:56:11.635Z,1.58
2022-09-15T01:58:39.633Z,1.50
2022-09-15T02:01:08.937Z,1.70
2022-09-15T02:03:58.812Z,1.40
2022-09-15T02:06:36.060Z,1.38
2022-09-15T02:09:14.995Z,1.38
2022-09-15T02:11:58.226Z,1.58
2022-09-15T02:14:52.806Z,1.38
2022-09-15T02:17:21.228Z,1.00
2022-09-15T02:19:56.125Z,1.42
2022-09-15T02:22:30.745Z,1.50
2022-09-15T02:25:03.054Z,1.95
2022-09-15T02:27:33.806Z,1.38
2022-09-15T02:30:09.808Z,1.15
2022-09-15T02:32:38.855Z,1.50
2022-09-15T02:35:09.366Z,1.23
2022-09-15T02:37:37.466Z,1.30
2022-09-15T02:40:05.915Z,1.10
2022-09-15T02:42:33.488Z,1.08
2022-09-15T02:45:01.542Z,1.30
2022-09-15T02:47:28.586Z,1.40
2022-09-15T02:49:55.812Z,1.30
2022-09-15T02:52:22.687Z,1.13
2022-09-15T02:54:50.080Z,1.38
2022-09-15T02:57:16.748Z,1.10
2022-09-15T03:00:02.196Z,1.10
2022-09-15T03:02:29.050Z,1.05
2022-09-15T03:04:55.747Z,1.40
2022-09-15T03:07:22.449Z,1.20
2022-09-15T03:09:49.139Z,1.65
2022-09-15T03:12:16.049Z,1.25
2022-09-15T03:14:43.026Z,1.20
2022-09-15T03:17:09.864Z,1.40
2022-09-15T03:19:36.541Z,1.25
2022-09-15T03:22:03.280Z,1.35
2022-09-15T03:24:30.061Z,1.30
2022-09-15T03:26:56.700Z,1.23
2022-09-15T03:29:23.581Z,1.00
2022-09-15T03:31:50.244Z,1.33
2022-09-15T03:34:17.065Z,1.17
2022-09-15T03:36:43.835Z,1.17
2022-09-15T03:39:12.488Z,1.20
2022-09-15T03:41:39.268Z,1.23
2022-09-15T03:44:05.948Z,1.35
2022-09-15T03:46:33.064Z,1.20
2022-09-15T03:48:59.708Z,1.02
2022-09-15T03:51:26.367Z,0.88
2022-09-15T03:53:53.128Z,1.38
2022-09-15T03:56:27.942Z,0.95
2022-09-15T03:58:54.750Z,1.00
2022-09-15T04:01:21.717Z,1.08
2022-09-15T04:03:51.042Z,0.90
2022-09-15T04:06:19.850Z,1.00
2022-09-15T04:08:46.872Z,1.20
2022-09-15T04:11:13.861Z,1.08
2022-09-15T04:13:42.070Z,1.00
2022-09-15T04:16:12.793Z,0.90
2022-09-15T04:18:40.219Z,0.77
2022-09-15T04:21:09.230Z,1.00
2022-09-15T04:23:35.953Z,1.02
2022-09-15T04:26:06.746Z,1.15
2022-09-15T04:28:36.896Z,1.00
2022-09-15T04:31:06.559Z,1.30
2022-09-15T04:33:34.331Z,0.68
2022-09-15T04:36:02.658Z,1.38
2022-09-15T04:38:29.683Z,1.10
2022-09-15T04:40:56.407Z,1.20
2022-09-15T04:43:23.103Z,1.23
2022-09-15T04:45:49.832Z,1.33
2022-09-15T04:48:16.856Z,1.20
2022-09-15T04:50:43.517Z,1.50
2022-09-15T04:53:10.313Z,1.02
2022-09-15T04:55:36.976Z,1.20
2022-09-15T04:58:04.291Z,1.13
2022-09-15T05:00:33.484Z,1.40
2022-09-15T05:03:00.208Z,1.35
2022-09-15T05:05:27.115Z,1.45
2022-09-15T05:07:54.036Z,1.00
2022-09-15T05:10:20.918Z,1.20
2022-09-15T05:12:47.532Z,1.30
2022-09-15T05:15:14.131Z,1.00
2022-09-15T05:17:40.767Z,1.50
2022-09-15T05:20:07.722Z,1.20
2022-09-15T05:22:38.305Z,1.20
2022-09-15T05:25:07.937Z,1.15
2022-09-15T05:27:34.522Z,1.10
2022-09-15T05:30:31.980Z,1.27
2022-09-15T05:32:47.704Z,1.20
2022-09-15T05:35:14.526Z,1.40
2022-09-15T05:37:41.204Z,1.25
2022-09-15T05:40:08.796Z,1.20
2022-09-15T05:42:35.640Z,1.10
2022-09-15T05:45:02.252Z,1.10
2022-09-15T05:47:28.907Z,1.20
2022-09-15T05:49:55.646Z,1.35
2022-09-15T05:52:22.476Z,1.20
2022-09-15T05:54:49.133Z,0.98
2022-09-15T05:57:15.933Z,1.02
2022-09-15T05:59:43.954Z,1.10
2022-09-15T06:02:11.728Z,1.40
2022-09-15T06:04:39.032Z,1.15
2022-09-15T06:07:05.747Z,1.48
2022-09-15T06:09:32.540Z,1.25
2022-09-15T06:11:59.180Z,1.60
2022-09-15T06:14:25.815Z,1.60
2022-09-15T06:16:52.444Z,1.17
2022-09-15T06:19:19.110Z,1.10
2022-09-15T06:21:45.785Z,1.15
2022-09-15T06:24:12.661Z,1.40
2022-09-15T06:26:39.288Z,1.13
2022-09-15T06:29:05.983Z,0.88
2022-09-15T06:31:34.121Z,1.15
2022-09-15T06:34:01.472Z,1.15
2022-09-15T06:36:30.204Z,1.25
2022-09-15T06:38:57.387Z,0.98
2022-09-15T06:41:24.738Z,1.17
2022-09-15T06:43:51.526Z,1.00
2022-09-15T06:46:20.897Z,1.00
2022-09-15T06:48:48.797Z,1.10
2022-09-15T06:51:17.424Z,0.90
2022-09-15T06:53:44.603Z,1.23
2022-09-15T06:56:13.678Z,0.80
2022-09-15T06:58:42.593Z,1.48
2022-09-15T07:01:14.921Z,0.80
2022-09-15T07:03:44.125Z,0.90
2022-09-15T07:06:14.000Z,0.77
2022-09-15T07:08:41.218Z,0.57
2022-09-15T07:11:09.281Z,0.60
2022-09-15T07:13:36.597Z,0.60
2022-09-15T07:16:05.744Z,0.50
2022-09-15T07:18:33.168Z,0.40
2022-09-15T07:21:08.131Z,0.50
2022-09-15T07:23:35.526Z,0.50
2022-09-15T07:26:10.124Z,0.50
2022-09-15T07:28:37.586Z,0.40
2022-09-15T07:31:06.229Z,0.60
2022-09-15T07:33:34.233Z,0.50
2022-09-15T07:36:02.896Z,0.40
2022-09-15T07:38:29.717Z,0.80
2022-09-15T07:41:12.534Z,0.55
2022-09-15T07:43:40.103Z,0.55
2022-09-15T07:46:07.295Z,0.50
2022-09-15T07:48:33.986Z,0.50
2022-09-15T07:51:00.660Z,0.50
2022-09-15T07:53:30.585Z,0.50
2022-09-15T07:55:57.554Z,0.82
2022-09-15T07:58:25.139Z,0.45
2022-09-15T08:00:52.221Z,0.70
2022-09-15T08:03:19.047Z,0.55
2022-09-15T08:05:46.237Z,0.40
2022-09-15T08:08:13.371Z,0.45
2022-09-15T08:10:41.407Z,0.50
2022-09-15T08:13:08.386Z,0.65
2022-09-15T08:15:37.443Z,1.05
2022-09-15T08:18:05.294Z,0.57
2022-09-15T08:20:32.143Z,1.08
2022-09-15T08:22:59.004Z,0.50
2022-09-15T08:25:25.740Z,0.65
2022-09-15T08:27:54.049Z,0.60
2022-09-15T08:30:21.319Z,0.80
2022-09-15T08:32:48.596Z,0.57
2022-09-15T08:35:16.013Z,0.50
2022-09-15T08:37:46.222Z,0.60
2022-09-15T08:40:28.820Z,0.70
2022-09-15T08:43:00.961Z,0.55
2022-09-15T08:45:31.900Z,0.70
2022-09-15T08:48:03.540Z,0.60
2022-09-15T08:50:43.866Z,0.75
2022-09-15T08:53:16.589Z,0.60
2022-09-15T08:55:54.028Z,0.70
2022-09-15T08:58:23.670Z,0.70
2022-09-15T09:00:56.905Z,0.82
2022-09-15T09:03:41.740Z,0.70
2022-09-15T09:06:31.142Z,0.65
2022-09-15T09:09:07.887Z,0.85
2022-09-15T09:11:48.730Z,0.55
2022-09-15T09:14:46.829Z,0.60
2022-09-15T09:17:58.134Z,0.60
2022-09-15T09:20:32.356Z,0.80
2022-09-15T09:23:02.179Z,0.50
2022-09-15T09:25:28.841Z,0.50
2022-09-15T09:27:58.470Z,0.50
2022-09-15T09:30:28.580Z,0.68
2022-09-15T09:33:32.928Z,0.60
2022-09-15T09:36:01.232Z,0.60
2022-09-15T09:38:35.743Z,0.50
2022-09-15T09:41:07.179Z,0.50
2022-09-15T09:43:33.922Z,0.55
2022-09-15T09:46:02.178Z,0.45
2022-09-15T09:48:29.918Z,0.50
2022-09-15T09:50:56.851Z,1.35
2022-09-15T09:53:32.791Z,7.30
2022-09-15T09:56:17.000Z,3.40
2022-09-15T09:58:44.685Z,1.27
2022-09-15T10:01:20.439Z,0.80
2022-09-15T10:03:47.511Z,0.50
2022-09-15T10:06:22.197Z,0.50
2022-09-15T10:09:08.581Z,0.52
2022-09-15T10:11:41.281Z,0.60
2022-09-15T10:14:19.065Z,0.50
2022-09-15T10:17:00.354Z,0.40
2022-09-15T10:19:33.394Z,0.40
2022-09-15T10:22:02.173Z,0.50
2022-09-15T10:24:39.718Z,0.40
2022-09-15T10:27:37.554Z,0.47
2022-09-15T10:30:13.580Z,0.52
2022-09-15T10:32:41.583Z,0.30
2022-09-15T10:35:20.284Z,0.52
2022-09-15T10:37:57.374Z,0.40
2022-09-15T10:40:36.654Z,0.45
2022-09-15T10:43:25.075Z,0.40
2022-09-15T10:46:02.270Z,0.40
2022-09-15T10:48:49.518Z,0.68
2022-09-15T10:51:31.216Z,0.60
2022-09-15T10:54:06.951Z,0.60
2022-09-15T10:56:47.408Z,0.50
2022-09-15T10:59:35.891Z,0.60
2022-09-15T11:02:23.861Z,0.60
2022-09-15T11:05:02.880Z,0.50
2022-09-15T11:07:50.826Z,0.50
2022-09-15T11:10:29.724Z,0.80
2022-09-15T11:13:03.935Z,0.70
2022-09-15T11:15:36.611Z,0.82
2022-09-15T11:18:28.410Z,0.80
2022-09-15T11:20:55.151Z,0.70
2022-09-15T11:23:32.789Z,0.80
2022-09-15T11:26:26.171Z,0.90
2022-09-15T11:29:11.629Z,0.90
2022-09-15T11:31:42.515Z,0.90
2022-09-15T11:34:18.811Z,1.40
2022-09-15T11:36:54.826Z,1.95
2022-09-15T11:39:29.142Z,1.17
2022-09-15T11:42:11.761Z,0.93
2022-09-15T11:44:42.796Z,1.00
2022-09-15T11:47:27.781Z,0.70
2022-09-15T11:50:01.934Z,0.95
2022-09-15T11:52:46.729Z,0.70
2022-09-15T11:55:25.704Z,0.52
2022-09-15T11:58:17.345Z,0.80
2022-09-15T12:01:00.722Z,0.60
2022-09-15T12:06:03.062Z,0.70
2022-09-15T12:08:37.522Z,0.30
2022-09-15T12:11:10.731Z,0.40
2022-09-15T12:13:40.727Z,0.50
2022-09-15T12:16:09.072Z,0.40
2022-09-15T12:18:51.058Z,0.30
2022-09-15T12:21:30.081Z,0.20
2022-09-15T12:24:03.760Z,0.13
2022-09-15T12:26:33.212Z,0.30
2022-09-15T12:29:02.621Z,0.20
2022-09-15T12:31:34.184Z,0.85
2022-09-15T12:34:30.716Z,0.10
2022-09-15T12:37:11.112Z,0.20
2022-09-15T12:39:41.492Z,0.40
2022-09-15T12:42:31.564Z,0.30
2022-09-15T12:45:06.801Z,0.20
2022-09-15T12:47:49.191Z,0.10
2022-09-15T12:50:15.775Z,0.17
2022-09-15T12:52:52.059Z,0.30
2022-09-15T12:55:46.884Z,0.28
2022-09-15T12:58:21.212Z,0.20
2022-09-15T13:01:14.387Z,0.10
2022-09-15T13:03:37.615Z,0.13
2022-09-15T13:06:10.329Z,0.20
2022-09-15T13:08:36.909Z,0.35
2022-09-15T13:11:09.405Z,0.10
2022-09-15T13:13:39.934Z,0.20
2022-09-15T13:16:12.130Z,0.20
2022-09-15T13:18:42.243Z,0.20
2022-09-15T13:21:15.597Z,0.32
2022-09-15T13:23:48.441Z,0.20
2022-09-15T13:26:22.596Z,0.50
2022-09-15T13:28:52.844Z,0.40
2022-09-15T13:31:32.935Z,0.60
2022-09-15T13:40:57.916Z,1.25
2022-09-15T13:43:37.358Z,1.23
2022-09-15T13:49:15.702Z,1.10
2022-09-15T13:51:45.495Z,1.30
2022-09-15T13:54:20.075Z,1.10
2022-09-15T13:56:53.291Z,0.80
2022-09-15T13:59:25.336Z,1.02
2022-09-15T14:01:53.938Z,1.10
2022-09-15T14:04:31.497Z,1.30
2022-09-15T14:07:01.509Z,0.95
2022-09-15T14:09:34.150Z,1.65
2022-09-15T14:12:09.613Z,1.27
2022-09-15T14:14:40.594Z,1.50
2022-09-15T14:17:24.412Z,1.10
2022-09-15T14:20:01.047Z,1.55
2022-09-15T14:22:33.199Z,1.35
2022-09-15T14:25:05.944Z,1.70
2022-09-15T14:27:34.936Z,1.50
2022-09-15T14:30:06.120Z,1.52
2022-09-15T14:32:38.286Z,2.00
2022-09-15T14:35:09.384Z,1.77
2022-09-15T14:37:36.461Z,1.90
2022-09-15T14:40:19.029Z,1.90
2022-09-15T14:42:45.721Z,1.90
2022-09-15T14:48:06.311Z,1.77
2022-09-15T14:50:33.846Z,2.20
2022-09-15T14:53:05.377Z,2.53
2022-09-15T14:55:48.571Z,2.70
2022-09-15T14:58:42.593Z,2.75
2022-09-15T15:01:20.868Z,2.40
2022-09-15T15:04:16.687Z,1.92
2022-09-15T15:07:13.475Z,2.15
2022-09-15T15:09:46.824Z,2.10
2022-09-15T15:12:30.469Z,2.50
2022-09-15T15:14:58.753Z,2.40
2022-09-15T15:17:37.851Z,2.22
2022-09-15T15:20:10.506Z,2.35
2022-09-15T15:22:38.687Z,2.70
2022-09-15T15:25:29.464Z,2.30
2022-09-15T15:27:57.849Z,2.70
2022-09-15T15:31:12.080Z,2.55
2022-09-15T15:33:49.116Z,2.55
2022-09-15T15:36:21.923Z,2.90
2022-09-15T15:38:57.637Z,2.63
2022-09-15T15:41:27.467Z,3.17
2022-09-15T15:44:00.152Z,3.28
2022-09-15T15:46:46.052Z,3.92
2022-09-15T15:49:15.686Z,4.05
2022-09-15T15:51:43.092Z,3.83
2022-09-15T15:54:09.876Z,4.15
2022-09-15T15:56:38.013Z,4.00
2022-09-15T15:59:05.884Z,4.40
2022-09-15T16:01:33.359Z,4.53
2022-09-15T16:04:00.096Z,4.13
2022-09-15T16:06:27.040Z,4.40
2022-09-15T16:08:55.615Z,5.30
2022-09-15T16:11:22.317Z,4.53
2022-09-15T16:13:48.994Z,4.90
2022-09-15T16:16:21.246Z,4.35
2022-09-15T16:18:48.316Z,4.38
2022-09-15T16:21:20.892Z,4.55
2022-09-15T16:23:48.197Z,4.32
2022-09-15T16:26:17.650Z,4.93
2022-09-15T16:28:44.534Z,5.00
2022-09-15T16:31:13.312Z,4.40
2022-09-15T16:33:41.782Z,4.32
2022-09-15T16:36:12.722Z,4.13
2022-09-15T16:38:41.092Z,4.00
2022-09-15T16:41:15.290Z,3.70
2022-09-15T16:43:42.726Z,3.22
2022-09-15T16:46:11.185Z,4.00
2022-09-15T16:48:39.100Z,3.65
2022-09-15T16:51:26.758Z,4.00
2022-09-15T16:53:56.327Z,4.00
2022-09-15T16:56:23.275Z,4.35
2022-09-15T16:58:53.845Z,4.78
2022-09-15T17:01:25.268Z,4.63
2022-09-15T17:03:51.959Z,4.68
2022-09-15T17:06:19.002Z,3.85
2022-09-15T17:08:45.853Z,3.90
2022-09-15T17:11:16.649Z,4.10
2022-09-15T17:13:44.683Z,4.70
2022-09-15T17:16:13.876Z,4.43
2022-09-15T17:18:40.825Z,4.72
2022-09-15T17:21:11.178Z,4.13
2022-09-15T17:23:40.295Z,4.45
2022-09-15T17:26:11.747Z,4.43
2022-09-15T17:28:38.491Z,4.82
2022-09-15T17:31:20.089Z,4.70
2022-09-15T17:33:48.020Z,4.65
2022-09-15T17:36:15.111Z,5.18
2022-09-15T17:38:42.006Z,4.93
2022-09-15T17:41:14.832Z,4.75
2022-09-15T17:43:41.892Z,4.65
2022-09-15T17:46:09.159Z,4.22
2022-09-15T17:48:38.651Z,4.93
2022-09-15T17:51:06.579Z,4.70
2022-09-15T17:53:33.290Z,4.93
2022-09-15T17:56:00.218Z,5.28
2022-09-15T17:58:26.944Z,5.32
2022-09-15T18:00:54.105Z,5.50
2022-09-15T18:03:34.755Z,4.22
2022-09-15T18:06:05.237Z,4.30
2022-09-15T18:08:36.023Z,4.13
2022-09-15T18:11:04.687Z,4.22
2022-09-15T18:13:31.813Z,4.53
2022-09-15T18:16:04.098Z,4.15
2022-09-15T18:18:30.803Z,4.50
2022-09-15T18:20:58.342Z,4.82
2022-09-15T18:23:26.974Z,4.38
2022-09-15T18:25:53.686Z,4.72
2022-09-15T18:28:20.655Z,4.93
2022-09-15T18:30:49.627Z,5.18
2022-09-15T18:33:21.680Z,5.35
2022-09-15T18:38:17.139Z,5.10
2022-09-15T18:40:49.296Z,5.75
2022-09-15T18:43:17.167Z,5.43
2022-09-15T18:45:44.433Z,5.32
2022-09-15T18:48:13.160Z,5.00
2022-09-15T18:50:41.504Z,5.15
2022-09-15T18:53:08.207Z,4.95
2022-09-15T18:55:34.896Z,5.20
2022-09-15T18:58:01.613Z,4.95
2022-09-15T19:00:29.306Z,5.07
2022-09-15T19:03:00.735Z,5.00
2022-09-15T19:05:29.245Z,5.28
2022-09-15T19:07:56.610Z,5.70
2022-09-15T19:10:24.636Z,5.65
2022-09-15T19:12:51.234Z,5.78
2022-09-15T19:15:18.128Z,6.15
2022-09-15T19:17:45.146Z,5.47
2022-09-15T19:20:14.921Z,6.20
2022-09-15T19:22:42.009Z,5.30
2022-09-15T19:25:09.987Z,5.50
2022-09-15T19:27:38.144Z,5.30
2022-09-15T19:30:06.049Z,5.43
2022-09-15T19:32:32.901Z,5.72
2022-09-15T19:34:59.567Z,5.88
2022-09-15T19:37:26.265Z,5.45
2022-09-15T19:39:52.943Z,5.78
2022-09-15T19:42:19.590Z,4.97
2022-09-15T19:44:47.873Z,4.75
2022-09-15T19:47:14.557Z,5.05
2022-09-15T19:49:41.190Z,5.30
2022-09-15T19:52:07.927Z,5.50
2022-09-15T19:54:35.044Z,5.60
2022-09-15T19:57:02.206Z,5.60
2022-09-15T19:59:31.531Z,5.18
2022-09-15T20:01:59.595Z,5.90
2022-09-15T20:04:26.800Z,5.30
2022-09-15T20:06:53.443Z,4.78
2022-09-15T20:09:20.130Z,5.07
2022-09-15T20:11:46.852Z,5.25
2022-09-15T20:14:13.858Z,5.35
2022-09-15T20:16:40.925Z,5.22
2022-09-15T20:19:07.972Z,5.05
2022-09-15T20:21:52.245Z,5.55
2022-09-15T20:24:20.599Z,5.72
2022-09-15T20:26:48.160Z,6.90
2022-09-15T20:29:14.948Z,7.03
2022-09-15T20:31:41.678Z,6.38
2022-09-15T20:34:08.360Z,5.55
2022-09-15T20:36:37.538Z,4.93
2022-09-15T20:39:10.585Z,5.30
2022-09-15T20:41:37.652Z,5.53
2022-09-15T20:44:06.165Z,5.53
2022-09-15T20:46:33.536Z,5.75
2022-09-15T20:49:00.294Z,5.47
2022-09-15T20:51:31.593Z,5.00
2022-09-15T20:54:00.363Z,5.55
2022-09-15T20:56:29.128Z,6.00
2022-09-15T20:59:00.075Z,5.38
2022-09-15T21:01:35.900Z,6.05
2022-09-15T21:04:03.195Z,5.88
2022-09-15T21:06:31.583Z,6.03
2022-09-15T21:08:58.679Z,6.15
2022-09-15T21:11:27.541Z,6.10
2022-09-15T21:13:55.299Z,6.60
2022-09-15T21:16:24.835Z,5.65
2022-09-15T21:18:52.522Z,5.47
2022-09-15T21:21:26.608Z,5.55
2022-09-15T21:24:03.715Z,5.93
2022-09-15T21:26:33.618Z,4.38
2022-09-15T21:29:00.655Z,6.13
2022-09-15T21:31:32.857Z,5.50
2022-09-15T21:33:59.962Z,5.22
2022-09-15T21:36:29.812Z,6.18
2022-09-15T21:38:59.121Z,5.38
2022-09-15T21:41:29.825Z,5.95
2022-09-15T21:43:58.475Z,5.10
2022-09-15T21:46:27.951Z,5.55
2022-09-15T21:48:57.554Z,5.72
2022-09-15T21:51:25.390Z,5.32
2022-09-15T21:53:56.872Z,5.80
2022-09-15T21:56:24.512Z,6.30
2022-09-15T21:58:51.722Z,6.05
2022-09-15T22:01:25.452Z,6.18
2022-09-15T22:03:55.068Z,5.95
2022-09-15T22:06:27.724Z,5.57
2022-09-15T22:08:55.411Z,5.82
2022-09-15T22:11:23.098Z,5.72
2022-09-15T22:13:50.557Z,5.07
2022-09-15T22:16:20.046Z,5.22
2022-09-15T22:18:47.798Z,5.10
2022-09-15T22:21:21.088Z,5.40
2022-09-15T22:23:49.935Z,5.47
2022-09-15T22:26:20.054Z,4.60
2022-09-15T22:28:47.192Z,5.55
2022-09-15T22:31:17.843Z,5.38
2022-09-15T22:33:44.892Z,4.88
2022-09-15T22:36:14.077Z,4.97
2022-09-15T22:38:41.208Z,5.25
2022-09-15T22:41:12.265Z,5.22
2022-09-15T22:43:40.466Z,5.15
2022-09-15T22:46:07.966Z,5.47
2022-09-15T22:48:39.675Z,4.78
2022-09-15T22:51:09.448Z,4.43
2022-09-15T22:53:36.433Z,4.57
2022-09-15T22:56:09.307Z,4.70
2022-09-15T22:58:37.448Z,4.70
2022-09-15T23:01:19.064Z,4.63
2022-09-15T23:03:53.291Z,4.93
2022-09-15T23:06:21.410Z,4.70
2022-09-15T23:08:52.978Z,4.50
2022-09-15T23:11:21.082Z,5.00
2022-09-15T23:13:48.215Z,4.38
2022-09-15T23:16:14.921Z,4.90
2022-09-15T23:18:41.684Z,4.18
2022-09-15T23:21:12.941Z,4.80
2022-09-15T23:23:41.912Z,4.87
2022-09-15T23:26:11.115Z,4.75
2022-09-15T23:28:39.458Z,4.88
2022-09-15T23:31:07.335Z,4.70
2022-09-15T23:33:34.725Z,4.45
2022-09-15T23:36:03.923Z,4.82
2022-09-15T23:38:35.401Z,4.95
2022-09-15T23:41:02.764Z,5.25
2022-09-15T23:43:29.410Z,4.13
2022-09-15T23:45:56.271Z,4.57
2022-09-15T23:48:23.699Z,5.18
2022-09-15T23:50:50.875Z,4.82
2022-09-15T23:53:19.870Z,4.40
2022-09-15T23:55:47.616Z,4.30
2022-09-15T23:58:14.769Z,4.78
